Time;durP1;ratioP1;P1;durP2;ratioP2;P2;SDS_P1;SDS_P2;PMS_P1;PMS_P2;Temp;Humidity;BMP_temperature;BMP_pressure;BME280_temperature;BME280_humidity;BME280_pressure;Samples;Min_cycle;Max_cycle;Signal;HPM_P1;HPM_P2
2021/04/26 00:01:52;;;;;;;3.05;2.72;;;13.40;99.90;;;12.76;71.11;100572.88;5090836;28;20739;-46
2021/04/26 00:04:18;;;;;;;5.15;3.95;;;13.30;99.90;;;12.69;71.17;100560.59;5091887;28;20024;-45
2021/04/26 00:06:45;;;;;;;6.25;3.17;;;13.30;99.90;;;12.72;71.08;100563.72;5087493;28;20397;-43
2021/04/26 00:09:10;;;;;;;7.22;3.47;;;13.30;99.90;;;12.72;71.14;100553.28;5092143;28;20032;-46
2021/04/26 00:11:36;;;;;;;6.05;3.17;;;13.30;99.90;;;12.71;71.24;100551.63;5094772;28;20050;-46
2021/04/26 00:14:05;;;;;;;4.93;3.22;;;13.30;99.90;;;12.70;71.40;100541.31;5086944;28;20471;-48
2021/04/26 00:16:32;;;;;;;6.20;3.28;;;13.30;99.90;;;12.70;71.08;100546.56;5084242;28;20032;-51
2021/04/26 00:18:58;;;;;;;4.90;3.47;;;13.20;99.90;;;12.74;70.88;100550.50;5085121;28;20487;-50
2021/04/26 00:21:24;;;;;;;5.13;3.05;;;13.30;99.90;;;12.83;70.10;100545.13;5087377;28;20438;-51
2021/04/26 00:23:50;;;;;;;4.07;3.10;;;13.30;99.90;;;12.80;70.44;100545.44;5084413;28;20400;-48
2021/04/26 00:26:16;;;;;;;6.00;3.40;;;13.30;99.90;;;12.81;70.56;100554.91;5100920;28;20305;-44
2021/04/26 00:28:42;;;;;;;4.97;3.38;;;13.30;99.90;;;12.79;70.82;100550.81;5087634;28;20669;-44
2021/04/26 00:31:08;;;;;;;9.65;2.67;;;13.30;99.90;;;12.77;71.10;100560.63;5088733;28;20118;-51
2021/04/26 00:33:34;;;;;;;2.63;2.25;;;13.30;99.90;;;12.74;71.21;100556.53;5092206;28;20082;-50
2021/04/26 00:36:00;;;;;;;8.02;3.17;;;13.30;99.90;;;12.69;71.31;100556.19;5087099;28;20391;-46
2021/04/26 00:38:26;;;;;;;2.65;2.42;;;13.20;99.90;;;12.70;71.67;100557.84;5088243;28;20040;-51
2021/04/26 00:40:52;;;;;;;4.55;2.83;;;13.30;99.90;;;12.68;71.84;100549.31;5099787;28;20031;-42
2021/04/26 00:43:19;;;;;;;4.30;3.22;;;13.30;99.90;;;12.71;71.51;100545.59;5086944;28;20038;-48
2021/04/26 00:45:45;;;;;;;3.45;2.63;;;13.30;99.90;;;12.74;71.44;100542.66;5087345;28;20033;-48
2021/04/26 00:48:11;;;;;;;9.63;3.53;;;13.30;99.90;;;12.75;71.52;100547.72;5089607;28;20040;-48
2021/04/26 00:50:38;;;;;;;5.50;3.10;;;13.30;99.90;;;12.77;71.43;100542.31;5093997;28;20047;-44
2021/04/26 00:53:05;;;;;;;4.75;2.78;;;13.30;99.90;;;12.79;71.01;100541.19;5096455;28;20118;-49
2021/04/26 00:55:34;;;;;;;4.70;2.70;;;13.30;99.90;;;12.83;70.33;100547.75;5101844;28;20495;-44
2021/04/26 00:58:02;;;;;;;5.97;3.38;;;13.40;99.90;;;12.82;70.71;100546.09;5095753;28;20035;-47
2021/04/26 01:00:30;;;;;;;3.60;2.80;;;13.40;99.90;;;12.79;70.71;100546.41;5079617;28;20039;-47
2021/04/26 01:02:56;;;;;;;4.93;2.78;;;13.40;99.90;;;12.91;70.00;100549.56;5086184;28;20040;-45
2021/04/26 01:05:27;;;;;;;7.32;2.80;;;13.40;99.90;;;12.93;69.74;100539.78;5087895;28;20055;-45
2021/04/26 01:07:55;;;;;;;3.22;2.67;;;13.50;99.90;;;12.88;70.01;100542.84;5087084;28;20035;-45
2021/04/26 01:10:25;;;;;;;4.13;2.58;;;13.40;99.90;;;12.77;70.88;100543.13;5094989;28;20074;-49
2021/04/26 01:13:42;;;;;;;5.60;3.42;;;13.40;99.90;;;12.66;71.70;100550.44;5093261;28;20077;-47
2021/04/26 01:16:41;;;;;;;4.10;2.45;;;13.30;99.90;;;12.61;71.66;100538.66;5091642;28;20075;-45
2021/04/26 01:19:50;;;;;;;6.07;3.00;;;13.20;99.90;;;12.60;71.85;100544.06;5057257;28;20032;-51
2021/04/26 01:22:37;;;;;;;6.97;2.80;;;13.20;99.90;;;12.52;71.86;100541.38;5079520;28;20045;-46
2021/04/26 01:25:09;;;;;;;4.57;2.60;;;13.10;99.90;;;12.53;71.31;100556.91;5070813;28;20102;-45
2021/04/26 01:27:47;;;;;;;2.85;2.65;;;13.10;99.90;;;12.54;70.97;100557.72;5095497;28;20134;-48
2021/04/26 01:30:24;;;;;;;6.05;2.85;;;13.10;99.90;;;12.50;71.56;100566.84;5101113;28;20464;-48
2021/04/26 01:33:06;;;;;;;3.97;3.08;;;13.10;99.90;;;12.40;71.97;100569.56;5078960;28;20077;-44
2021/04/26 01:35:33;;;;;;;4.47;2.40;;;13.00;99.90;;;12.38;71.45;100568.91;5086314;28;20581;-46
2021/04/26 01:38:25;;;;;;;5.47;2.78;;;12.90;99.90;;;12.46;70.47;100566.34;5078531;28;20024;-53
2021/04/26 01:40:54;;;;;;;7.38;1.88;;;13.00;99.90;;;12.62;68.93;100570.84;5078192;28;20041;-45
2021/04/26 01:43:24;;;;;;;7.15;2.63;;;13.10;99.90;;;12.77;68.18;100568.47;5083889;28;20032;-47
2021/04/26 01:45:55;;;;;;;3.70;2.38;;;13.20;99.90;;;12.88;67.23;100576.84;5103428;28;20116;-45
2021/04/26 01:48:25;;;;;;;3.47;2.75;;;13.30;99.90;;;12.83;66.93;100573.88;5095538;28;20052;-44
2021/04/26 01:50:51;;;;;;;5.30;2.72;;;13.30;99.90;;;12.91;65.56;100576.53;5085366;28;20055;-45
2021/04/26 01:53:19;;;;;;;7.90;2.55;;;13.40;99.90;;;12.95;65.31;100572.63;5091417;28;20037;-47
2021/04/26 01:55:46;;;;;;;4.05;2.38;;;13.50;99.90;;;12.93;65.66;100585.06;5077292;28;20035;-46
2021/04/26 01:58:17;;;;;;;7.43;3.60;;;13.50;99.90;;;12.92;65.69;100587.81;5093614;28;20088;-45
2021/04/26 02:00:43;;;;;;;6.93;2.63;;;13.50;99.90;;;13.01;64.60;100591.28;5055110;28;20040;-42
2021/04/26 02:03:10;;;;;;;7.55;2.50;;;13.50;99.90;;;13.03;64.44;100605.03;5092297;28;20031;-44
2021/04/26 02:05:37;;;;;;;5.00;2.55;;;13.50;99.90;;;13.01;64.19;100607.81;5098643;28;20081;-46
2021/04/26 02:08:05;;;;;;;5.95;2.30;;;13.60;99.90;;;13.33;60.34;100601.91;5085694;28;20107;-44
2021/04/26 02:10:32;;;;;;;8.27;2.90;;;13.60;99.90;;;13.61;57.25;100599.84;5076503;28;20097;-50
2021/04/26 02:12:59;;;;;;;8.23;3.08;;;13.90;95.10;;;13.72;54.03;100596.91;5095265;28;20158;-42
2021/04/26 02:15:29;;;;;;;4.93;2.67;;;14.10;92.90;;;13.77;52.69;100593.81;5086936;28;20535;-44
2021/04/26 02:17:56;;;;;;;6.20;3.08;;;14.20;90.40;;;13.77;50.87;100578.09;5092615;28;20510;-43
2021/04/26 02:20:22;;;;;;;6.60;2.97;;;14.30;86.80;;;13.71;51.64;100578.75;5093094;28;20055;-48
2021/04/26 02:22:50;;;;;;;6.68;3.35;;;14.20;82.90;;;13.64;52.25;100568.13;5095613;28;20028;-47
2021/04/26 02:25:17;;;;;;;11.02;3.03;;;14.20;84.40;;;13.61;50.18;100571.06;5103860;28;20052;-45
2021/04/26 02:27:44;;;;;;;4.68;2.58;;;14.20;81.00;;;13.65;51.62;100559.28;5089128;28;20047;-45
2021/04/26 02:30:11;;;;;;;5.60;2.47;;;14.10;80.30;;;13.64;51.57;100557.66;5101203;28;20548;-48
2021/04/26 02:32:48;;;;;;;3.70;2.65;;;14.10;80.80;;;13.64;49.59;100546.38;5095537;28;20084;-46
2021/04/26 02:35:37;;;;;;;5.90;2.90;;;14.20;80.00;;;13.59;49.95;100539.81;5096502;28;20058;-43
2021/04/26 02:38:07;;;;;;;8.02;2.90;;;14.10;81.20;;;13.58;52.05;100532.13;5071207;28;20039;-44
2021/04/26 02:40:40;;;;;;;4.53;2.83;;;14.10;81.70;;;13.54;52.27;100534.25;5101172;28;20044;-49
2021/04/26 02:43:07;;;;;;;5.50;2.67;;;14.10;82.40;;;13.45;52.87;100532.59;5078657;28;20120;-43
2021/04/26 02:45:40;;;;;;;8.60;2.60;;;14.00;82.60;;;13.34;53.66;100539.91;5090594;28;20039;-44
2021/04/26 02:48:07;;;;;;;11.52;2.83;;;13.90;84.00;;;13.23;52.21;100534.00;5454256;22;20064;-52
2021/04/26 02:50:34;;;;;;;7.03;3.30;;;13.80;83.70;;;13.24;54.14;100540.06;5039802;28;20070;-50
2021/04/26 02:53:00;;;;;;;6.65;2.38;;;13.80;85.00;;;13.22;54.01;100542.03;5034458;28;20048;-50
2021/04/26 02:55:27;;;;;;;5.70;2.80;;;13.80;84.90;;;13.20;54.13;100539.59;5054580;28;20040;-48
2021/04/26 02:57:56;;;;;;;7.32;3.22;;;13.80;85.10;;;13.37;50.63;100527.34;5058844;28;20045;-47
2021/04/26 03:00:24;;;;;;;4.60;3.10;;;13.80;78.70;;;13.39;50.15;100520.13;5051055;28;20021;-51
2021/04/26 03:02:52;;;;;;;4.03;2.67;;;13.80;76.20;;;13.37;50.08;100516.88;5032083;28;20489;-49
2021/04/26 03:05:19;;;;;;;9.15;3.35;;;13.90;76.60;;;13.29;49.83;100511.63;5035302;28;20075;-49
2021/04/26 03:07:46;;;;;;;6.38;2.70;;;13.80;76.50;;;13.24;50.09;100514.72;5034178;28;20033;-45
2021/04/26 03:10:16;;;;;;;4.70;2.92;;;13.80;76.20;;;13.17;49.61;100515.53;5031423;28;20095;-45
2021/04/26 03:12:49;;;;;;;6.32;2.53;;;13.70;75.30;;;13.13;49.85;100507.16;5053986;28;20059;-44
2021/04/26 03:15:28;;;;;;;6.45;2.95;;;13.70;75.50;;;13.06;50.20;100513.19;5051998;28;20116;-46
2021/04/26 03:17:55;;;;;;;10.35;3.47;;;13.60;76.00;;;13.04;50.12;100520.38;5037551;28;20102;-50
2021/04/26 03:20:21;;;;;;;7.55;2.78;;;13.60;75.40;;;12.95;50.44;100524.75;5045270;28;20120;-45
2021/04/26 03:22:48;;;;;;;6.93;2.97;;;13.50;76.00;;;12.84;51.05;100525.84;5037618;28;20210;-45
2021/04/26 03:25:20;;;;;;;7.10;3.33;;;13.40;76.60;;;12.78;51.10;100536.09;5051177;28;20029;-47
2021/04/26 03:27:49;;;;;;;11.40;3.85;;;13.40;76.90;;;12.75;50.78;100539.06;5052326;28;20480;-48
2021/04/26 03:30:19;;;;;;;6.00;3.08;;;13.30;76.60;;;12.76;50.64;100540.72;5043466;28;20044;-45
2021/04/26 03:32:48;;;;;;;5.53;2.75;;;13.30;76.10;;;12.76;49.23;100538.88;5032572;28;20420;-47
2021/04/26 03:35:18;;;;;;;9.05;2.38;;;13.30;73.80;;;12.90;48.86;100538.28;5056085;28;20115;-45
2021/04/26 03:37:50;;;;;;;4.88;2.50;;;13.40;73.20;;;12.89;48.20;100539.28;5047672;28;20133;-52
2021/04/26 03:40:23;;;;;;;5.57;2.83;;;13.40;71.70;;;12.88;48.74;100537.63;5050202;28;20037;-45
2021/04/26 03:42:58;;;;;;;4.93;2.55;;;13.40;72.70;;;12.83;47.90;100542.50;5053099;28;20781;-47
2021/04/26 03:45:25;;;;;;;5.60;2.30;;;13.40;72.20;;;12.84;48.78;100543.34;5056103;28;20071;-44
2021/04/26 03:47:52;;;;;;;5.65;2.15;;;13.40;71.80;;;12.84;48.26;100546.75;5049095;28;20036;-44
2021/04/26 03:50:22;;;;;;;6.28;2.20;;;13.30;71.90;;;12.80;48.82;100545.44;5064883;28;20508;-51
2021/04/26 03:52:49;;;;;;;4.82;2.28;;;13.30;72.20;;;12.77;48.96;100555.38;5057624;28;20031;-44
2021/04/26 03:55:19;;;;;;;4.45;2.05;;;13.30;72.10;;;12.77;48.24;100553.59;5056222;28;20111;-43
2021/04/26 03:57:46;;;;;;;8.10;2.38;;;13.30;72.00;;;12.80;47.44;100547.22;5050579;28;20029;-43
2021/04/26 04:00:15;;;;;;;3.67;1.73;;;13.30;69.90;;;12.75;48.41;100550.34;5056103;28;20375;-50
2021/04/26 04:02:42;;;;;;;5.50;2.03;;;13.30;71.20;;;12.72;48.70;100545.44;5051851;28;20029;-48
2021/04/26 04:05:09;;;;;;;7.70;3.13;;;13.30;71.60;;;12.69;48.87;100547.53;5047916;28;20029;-44
2021/04/26 04:07:36;;;;;;;5.25;2.22;;;13.40;71.70;;;12.62;49.18;100542.09;5061812;28;20480;-44
2021/04/26 04:10:12;;;;;;;5.28;2.50;;;13.20;72.20;;;12.61;47.05;100538.66;5055099;28;20468;-52
2021/04/26 04:12:38;;;;;;;3.85;2.35;;;13.20;70.30;;;12.65;48.01;100530.53;5051700;28;20081;-48
2021/04/26 04:15:06;;;;;;;4.28;2.00;;;13.20;69.20;;;12.65;45.84;100520.88;5050762;28;20078;-47
2021/04/26 04:17:32;;;;;;;3.83;1.77;;;13.20;67.60;;;12.65;45.69;100539.19;5046340;28;20048;-51
2021/04/26 04:19:59;;;;;;;4.60;1.73;;;13.20;67.20;;;12.66;46.49;100540.81;5047198;28;20083;-47
2021/04/26 04:22:24;;;;;;;2.83;1.80;;;13.20;67.70;;;12.66;46.31;100537.38;5057172;28;20037;-49
2021/04/26 04:24:51;;;;;;;7.75;2.20;;;13.20;67.10;;;12.62;46.15;100540.31;5052688;28;20071;-47
2021/04/26 04:27:17;;;;;;;6.68;1.90;;;13.20;66.60;;;12.61;45.81;100546.50;5058158;28;20111;-44
2021/04/26 04:29:43;;;;;;;5.72;2.25;;;13.10;66.10;;;12.62;45.41;100544.72;5051723;28;20040;-44
2021/04/26 04:32:09;;;;;;;8.63;3.13;;;13.20;65.00;;;12.60;45.57;100547.47;5058697;28;20018;-44
2021/04/26 04:34:36;;;;;;;6.05;2.40;;;13.10;65.80;;;12.59;45.17;100545.03;5059310;28;20046;-41
2021/04/26 04:37:02;;;;;;;4.82;1.67;;;13.10;65.00;;;12.54;44.38;100555.13;5051507;28;20452;-45
2021/04/26 04:39:28;;;;;;;4.65;1.70;;;13.10;64.40;;;12.45;43.89;100569.94;5048889;28;20041;-46
2021/04/26 04:41:54;;;;;;;3.75;1.58;;;13.00;63.20;;;12.36;44.98;100577.88;5061611;28;20033;-45
2021/04/26 04:44:20;;;;;;;7.57;2.17;;;13.00;64.40;;;12.34;43.95;100571.97;5046534;28;20500;-48
2021/04/26 04:46:46;;;;;;;4.82;1.75;;;12.90;62.70;;;12.25;44.07;100581.56;5058417;28;20064;-44
2021/04/26 04:49:12;;;;;;;6.68;1.73;;;12.80;62.90;;;12.19;44.14;100571.72;5058925;28;20052;-44
2021/04/26 04:51:39;;;;;;;3.60;1.98;;;12.80;62.60;;;12.21;44.37;100580.22;5050406;28;20048;-46
2021/04/26 04:54:05;;;;;;;3.72;2.10;;;12.70;63.10;;;12.26;44.24;100576.19;5052440;28;20044;-42
2021/04/26 04:56:31;;;;;;;4.28;1.63;;;12.80;62.80;;;12.18;43.53;100568.28;5054997;28;20028;-45
2021/04/26 04:58:57;;;;;;;7.43;1.83;;;12.70;62.00;;;12.26;43.89;100586.66;5048250;28;20047;-45
2021/04/26 05:01:23;;;;;;;5.70;1.75;;;12.80;62.50;;;12.22;43.25;100579.25;5056302;28;20458;-48
2021/04/26 05:03:49;;;;;;;3.88;1.38;;;12.80;61.70;;;12.26;42.97;100576.19;5038865;28;20045;-46
2021/04/26 05:06:15;;;;;;;4.75;1.27;;;12.80;61.20;;;12.30;42.90;100587.94;5060229;28;20056;-50
2021/04/26 05:08:41;;;;;;;4.53;1.55;;;12.80;61.10;;;12.56;42.71;100595.00;5045657;28;20033;-43
2021/04/26 05:11:07;;;;;;;5.40;1.90;;;13.00;61.40;;;12.69;41.55;100587.56;5052165;28;20039;-47
2021/04/26 05:13:33;;;;;;;7.60;1.55;;;13.20;60.50;;;13.19;41.90;100584.22;5057157;28;20036;-44
2021/04/26 05:15:59;;;;;;;7.78;1.55;;;13.80;59.90;;;13.94;40.40;100587.63;5050202;28;20033;-46
2021/04/26 05:18:25;;;;;;;3.90;1.27;;;14.70;58.10;;;15.33;38.46;100583.69;5050420;28;20033;-47
2021/04/26 05:20:51;;;;;;;4.78;1.10;;;16.60;54.20;;;15.78;36.88;100590.81;5029025;28;20025;-42
2021/04/26 05:23:17;;;;;;;4.65;1.52;;;17.50;51.10;;;15.36;37.72;100590.38;5042891;28;20039;-45
2021/04/26 05:25:43;;;;;;;2.88;1.33;;;16.90;51.50;;;14.98;38.14;100586.81;5064359;28;20041;-49
2021/04/26 05:28:09;;;;;;;4.38;1.60;;;16.30;52.40;;;14.63;37.89;100581.03;5065004;28;20078;-46
2021/04/26 05:30:35;;;;;;;5.97;1.88;;;15.90;51.70;;;14.25;38.92;100585.94;5057338;28;20045;-47
2021/04/26 05:33:01;;;;;;;5.40;1.45;;;15.20;54.00;;;14.92;37.90;100583.88;5061590;28;20039;-45
2021/04/26 05:35:27;;;;;;;8.68;1.63;;;16.10;52.60;;;14.35;37.56;100584.97;5055317;28;20041;-45
2021/04/26 05:37:54;;;;;;;3.97;1.45;;;15.70;51.40;;;14.03;38.50;100583.19;5048296;28;20029;-48
2021/04/26 05:40:20;;;;;;;3.33;1.20;;;15.10;53.00;;;13.85;38.30;100588.59;5052736;28;20041;-45
2021/04/26 05:42:46;;;;;;;4.55;1.33;;;14.80;53.40;;;13.71;38.66;100591.84;5054354;28;20037;-48
2021/04/26 05:45:17;;;;;;;3.72;1.20;;;14.50;53.50;;;13.51;38.83;100607.84;5055194;28;20033;-42
2021/04/26 05:47:44;;;;;;;2.95;1.33;;;14.30;53.70;;;13.59;39.40;100607.88;5048429;28;20041;-44
2021/04/26 05:50:10;;;;;;;3.45;1.38;;;14.30;54.50;;;13.78;39.06;100606.75;5058010;28;20036;-43
2021/04/26 05:52:36;;;;;;;3.38;1.25;;;14.60;54.70;;;13.83;39.26;100593.16;5059362;28;20037;-45
2021/04/26 05:55:03;;;;;;;4.68;1.08;;;14.60;54.60;;;13.68;38.88;100594.81;5053636;28;20028;-45
2021/04/26 05:57:29;;;;;;;6.03;1.77;;;14.50;53.80;;;13.61;39.50;100599.84;5062041;28;20036;-45
2021/04/26 05:59:56;;;;;;;8.77;2.53;;;14.30;55.00;;;13.32;39.27;100602.88;5060446;28;20081;-45
2021/04/26 06:02:22;;;;;;;4.43;1.38;;;14.10;54.30;;;13.23;39.68;100596.00;5061262;28;20542;-50
2021/04/26 06:04:48;;;;;;;3.42;1.00;;;13.90;54.70;;;13.13;40.15;100590.03;5051771;28;20041;-45
2021/04/26 06:07:14;;;;;;;2.83;1.02;;;13.70;55.50;;;13.03;39.39;100581.50;5057786;28;20037;-46
2021/04/26 06:09:40;;;;;;;3.00;1.17;;;13.60;54.80;;;13.13;39.71;100584.81;5057427;28;20190;-45
2021/04/26 06:12:07;;;;;;;4.13;1.50;;;13.60;55.50;;;13.28;39.64;100593.69;5053202;28;20033;-43
2021/04/26 06:14:32;;;;;;;6.05;1.20;;;13.80;55.40;;;13.31;39.00;100601.25;5061254;28;20039;-45
2021/04/26 06:16:58;;;;;;;3.00;0.82;;;13.90;55.00;;;13.42;38.92;100600.13;5059051;28;20061;-45
2021/04/26 06:19:24;;;;;;;3.20;1.30;;;13.90;54.60;;;13.75;38.58;100595.78;5061272;28;20044;-45
2021/04/26 06:21:50;;;;;;;6.05;1.90;;;14.30;54.40;;;13.99;38.04;100592.38;5066610;28;20330;-53
2021/04/26 06:24:16;;;;;;;3.30;1.23;;;14.60;53.70;;;14.82;36.20;100595.53;5057508;28;20429;-44
2021/04/26 06:26:42;;;;;;;2.30;0.85;;;16.00;50.30;;;15.22;35.65;100602.44;5064468;28;20119;-47
2021/04/26 06:29:08;;;;;;;4.10;1.30;;;16.50;49.90;;;15.54;34.79;100593.56;5059865;28;20040;-46
2021/04/26 06:31:34;;;;;;;3.03;1.20;;;17.20;47.80;;;15.64;34.41;100609.13;5060773;28;20036;-46
2021/04/26 06:34:00;;;;;;;6.55;0.80;;;17.50;46.90;;;15.36;34.05;100621.91;5066789;28;20125;-47
2021/04/26 06:36:26;;;;;;;3.85;1.00;;;17.00;46.60;;;15.01;34.38;100626.63;5067628;28;20447;-48
2021/04/26 06:38:51;;;;;;;2.97;1.42;;;16.60;47.40;;;14.64;35.53;100614.13;5059643;28;20368;-47
2021/04/26 06:41:18;;;;;;;3.72;1.30;;;15.90;48.50;;;14.42;35.79;100613.00;5057641;28;20053;-50
2021/04/26 06:43:44;;;;;;;3.10;0.98;;;15.50;49.50;;;14.58;35.37;100620.03;5056835;28;20029;-43
2021/04/26 06:46:10;;;;;;;2.97;1.33;;;15.50;49.60;;;14.57;35.86;100618.41;5066671;28;20487;-45
2021/04/26 06:48:36;;;;;;;4.82;1.15;;;15.50;49.80;;;15.04;34.76;100607.13;5067652;28;20115;-43
2021/04/26 06:51:02;;;;;;;4.28;1.13;;;15.90;48.70;;;15.31;34.54;100609.28;5058266;28;20171;-46
2021/04/26 06:53:28;;;;;;;4.03;1.35;;;16.30;48.40;;;15.51;33.94;100607.88;5048917;28;20564;-51
2021/04/26 06:55:54;;;;;;;5.43;1.50;;;16.70;47.90;;;15.66;34.09;100612.38;5063817;28;20118;-49
2021/04/26 06:58:20;;;;;;;4.53;1.10;;;16.90;47.00;;;15.54;33.49;100599.66;5056714;28;20044;-53
2021/04/26 07:00:46;;;;;;;6.10;1.15;;;16.70;47.20;;;14.97;34.71;100579.91;5038682;28;20151;-47
2021/04/26 07:03:12;;;;;;;2.60;0.98;;;16.00;48.00;;;14.67;35.52;100574.44;5065632;28;20391;-49
2021/04/26 07:05:38;;;;;;;3.60;1.13;;;15.50;49.40;;;14.41;35.61;100568.56;5060089;28;20115;-51
2021/04/26 07:08:04;;;;;;;3.60;1.10;;;15.20;49.60;;;14.53;35.89;100556.78;5058596;28;20372;-47
2021/04/26 07:10:30;;;;;;;4.97;1.15;;;15.10;50.40;;;14.54;35.91;100558.44;5060579;28;20521;-47
2021/04/26 07:12:56;;;;;;;3.75;0.93;;;15.10;50.60;;;14.70;34.90;100573.28;5059189;28;20033;-50
2021/04/26 07:15:22;;;;;;;4.57;1.23;;;15.30;49.60;;;14.60;35.06;100576.94;5053876;28;20500;-51
2021/04/26 07:17:48;;;;;;;3.67;1.00;;;15.20;50.00;;;14.31;35.15;100588.91;5051849;28;20044;-48
2021/04/26 07:20:14;;;;;;;3.33;0.80;;;15.00;49.20;;;14.43;35.97;100569.25;5058020;28;20040;-47
2021/04/26 07:22:41;;;;;;;4.05;0.90;;;15.00;50.60;;;14.25;35.63;100562.38;5061948;28;20041;-47
2021/04/26 07:25:08;;;;;;;5.25;1.30;;;14.90;50.00;;;13.99;35.90;100571.41;5048780;28;20119;-48
2021/04/26 07:27:35;;;;;;;4.63;0.90;;;14.60;50.00;;;14.19;36.20;100570.06;5059346;28;20029;-52
2021/04/26 07:30:01;;;;;;;3.13;1.05;;;14.70;50.90;;;14.28;35.39;100577.75;5058038;28;20028;-45
2021/04/26 07:32:27;;;;;;;5.28;1.00;;;14.80;50.20;;;14.02;36.06;100566.66;5060491;28;20525;-47
2021/04/26 07:34:53;;;;;;;5.10;0.88;;;14.70;50.30;;;13.99;36.05;100590.56;5068292;28;20442;-47
2021/04/26 07:37:20;;;;;;;5.28;0.80;;;14.60;50.50;;;14.14;35.95;100570.59;5068295;28;20122;-47
2021/04/26 07:39:46;;;;;;;3.22;0.98;;;14.60;50.70;;;14.20;35.82;100564.66;5068346;28;20042;-50
2021/04/26 07:42:12;;;;;;;3.38;0.82;;;14.70;50.30;;;14.42;35.55;100578.09;5068054;28;20488;-48
2021/04/26 07:44:38;;;;;;;3.75;0.90;;;14.80;50.10;;;14.96;35.12;100575.66;5068800;28;20133;-47
2021/04/26 07:47:05;;;;;;;2.40;0.88;;;15.20;50.30;;;15.95;33.67;100573.13;5068175;28;20074;-47
2021/04/26 07:49:31;;;;;;;3.70;1.02;;;16.10;49.30;;;15.92;33.74;100576.91;5067743;28;20045;-49
2021/04/26 07:51:57;;;;;;;3.20;0.90;;;16.20;49.20;;;15.93;33.83;100570.66;5067980;28;20123;-49
2021/04/26 07:54:23;;;;;;;2.67;1.23;;;16.50;48.50;;;15.81;33.35;100579.94;5062878;28;20086;-49
2021/04/26 07:56:49;;;;;;;3.13;1.00;;;16.50;47.90;;;15.82;33.39;100591.28;5046141;28;20033;-46
2021/04/26 07:59:15;;;;;;;4.03;1.20;;;16.50;47.30;;;15.57;33.50;100583.59;5045521;28;20025;-46
2021/04/26 08:01:41;;;;;;;8.98;1.10;;;16.30;47.50;;;15.67;33.97;100590.38;5046857;28;20048;-49
2021/04/26 08:04:07;;;;;;;3.05;0.88;;;16.30;48.30;;;15.54;34.20;100596.22;5047843;28;20508;-47
2021/04/26 08:06:33;;;;;;;5.03;1.15;;;16.20;48.50;;;15.60;33.90;100587.63;5047672;28;20111;-48
2021/04/26 08:08:59;;;;;;;3.92;1.10;;;16.20;48.30;;;15.55;34.11;100595.22;5047964;28;20033;-50
2021/04/26 08:11:25;;;;;;;4.18;1.52;;;16.20;48.30;;;15.78;33.75;100596.06;5047713;28;20033;-51
2021/04/26 08:13:51;;;;;;;4.38;0.98;;;16.30;48.50;;;15.42;33.67;100611.53;5047278;28;20032;-48
2021/04/26 08:16:18;;;;;;;3.35;1.38;;;16.10;47.70;;;15.46;34.20;100597.06;5046171;28;20660;-47
2021/04/26 08:18:44;;;;;;;4.50;1.15;;;16.10;48.20;;;15.28;34.23;100599.13;5047711;28;20036;-49
2021/04/26 08:21:10;;;;;;;2.17;0.90;;;16.00;47.90;;;15.16;34.45;100582.94;5052194;28;20149;-46
2021/04/26 08:23:38;;;;;;;7.30;1.38;;;15.90;48.60;;;15.36;34.51;100587.75;5055629;28;20047;-48
2021/04/26 08:26:04;;;;;;;4.88;1.30;;;15.90;48.90;;;15.59;34.03;100584.22;5050390;28;20377;-47
2021/04/26 08:28:37;;;;;;;4.07;0.80;;;16.10;48.70;;;15.31;33.89;100590.09;5058234;28;20412;-44
2021/04/26 08:31:07;;;;;;;4.22;0.95;;;16.00;48.10;;;16.10;33.32;100584.47;5056742;28;20041;-48
2021/04/26 08:33:41;;;;;;;1.85;0.73;;;16.40;48.30;;;16.25;32.74;100589.75;5042331;28;20167;-48
2021/04/26 08:36:08;;;;;;;5.03;1.20;;;16.70;47.80;;;16.46;33.21;100591.72;5062740;28;21327;-45
2021/04/26 08:38:34;;;;;;;5.00;1.05;;;17.00;47.90;;;16.43;33.21;100585.00;5055187;28;20041;-47
2021/04/26 08:41:01;;;;;;;1.77;0.60;;;17.00;47.40;;;16.51;32.83;100584.09;5055209;28;20041;-45
2021/04/26 08:43:29;;;;;;;3.08;0.65;;;17.10;47.30;;;16.52;32.98;100591.00;5058813;28;20089;-45
2021/04/26 08:45:57;;;;;;;3.13;0.80;;;17.00;47.60;;;16.46;33.12;100591.72;5056021;28;20037;-50
2021/04/26 08:48:25;;;;;;;5.13;0.80;;;17.10;47.40;;;16.20;33.13;100592.94;5049126;28;20423;-46
2021/04/26 08:50:51;;;;;;;2.60;0.75;;;16.90;47.50;;;16.66;32.64;100590.22;5053321;28;20073;-46
2021/04/26 08:53:17;;;;;;;2.88;0.90;;;17.20;47.30;;;16.66;32.47;100587.56;5048540;28;20033;-46
2021/04/26 08:55:43;;;;;;;3.45;0.82;;;17.20;46.90;;;16.37;32.68;100584.91;5054889;28;20048;-49
2021/04/26 08:58:09;;;;;;;3.97;0.88;;;17.20;46.60;;;16.10;33.09;100586.28;5062071;28;20135;-48
2021/04/26 09:00:35;;;;;;;3.50;0.90;;;16.80;46.80;;;16.14;32.97;100588.38;5056002;28;20045;-49
2021/04/26 09:03:05;;;;;;;3.30;0.70;;;16.80;46.70;;;16.30;31.85;100576.09;5045887;28;20495;-48
2021/04/26 09:05:39;;;;;;;2.22;0.90;;;17.00;46.40;;;16.64;32.48;100571.16;5043624;28;20044;-49
2021/04/26 09:08:13;;;;;;;4.00;1.30;;;17.10;47.40;;;17.44;31.58;100571.16;5044981;28;20040;-50
2021/04/26 09:10:53;;;;;;;3.17;0.90;;;17.70;46.60;;;18.33;31.19;100560.19;5045821;28;20040;-44
2021/04/26 09:13:31;;;;;;;1.92;0.70;;;18.50;46.70;;;18.60;31.63;100555.88;5046831;28;20603;-52
2021/04/26 09:16:07;;;;;;;2.92;0.88;;;19.20;46.60;;;18.39;31.53;100548.84;5046812;28;20036;-50
2021/04/26 09:18:58;;;;;;;3.35;1.60;;;19.20;46.30;;;18.01;32.09;100551.00;5046953;28;20485;-49
2021/04/26 09:21:38;;;;;;;4.82;0.90;;;18.90;46.30;;;17.98;32.74;100552.19;5041035;28;20128;-50
2021/04/26 09:24:13;;;;;;;1.80;0.93;;;18.70;47.30;;;18.22;32.12;100551.78;5045910;28;20036;-47
2021/04/26 09:26:41;;;;;;;4.03;1.08;;;18.80;47.00;;;18.37;32.54;100550.88;5049212;28;20060;-51
2021/04/26 09:29:27;;;;;;;3.88;0.82;;;18.90;47.30;;;18.51;32.24;100548.09;5044336;28;20390;-52
2021/04/26 09:32:22;;;;;;;3.92;0.68;;;19.00;47.00;;;18.12;32.09;100559.22;5047080;28;20710;-50
2021/04/26 09:34:53;;;;;;;3.97;1.10;;;19.00;46.60;;;17.93;32.78;100544.06;5046999;28;20053;-52
2021/04/26 09:37:29;;;;;;;3.90;0.82;;;18.80;47.10;;;17.80;32.85;100549.22;5042860;28;20408;-49
2021/04/26 09:40:04;;;;;;;2.08;0.68;;;18.60;46.90;;;17.47;33.55;100547.06;5049392;28;20057;-46
2021/04/26 09:42:45;;;;;;;2.83;0.88;;;18.30;47.40;;;17.15;33.22;100545.69;5047502;28;20302;-50
2021/04/26 09:45:35;;;;;;;2.58;0.93;;;18.10;47.10;;;16.69;33.31;100539.88;5048738;28;20100;-52
2021/04/26 09:48:23;;;;;;;1.63;1.00;;;17.70;46.90;;;16.36;34.35;100549.91;5048563;28;20071;-52
2021/04/26 09:51:06;;;;;;;2.40;0.90;;;17.30;48.00;;;16.21;36.06;100544.63;5044427;28;20407;-48
2021/04/26 09:53:41;;;;;;;3.40;0.82;;;17.00;49.50;;;16.01;36.76;100551.41;5049621;28;20030;-49
2021/04/26 09:56:20;;;;;;;3.13;1.00;;;16.80;50.50;;;15.85;36.08;100546.25;5048567;28;20048;-45
2021/04/26 09:58:53;;;;;;;3.30;1.27;;;16.60;49.90;;;15.76;37.06;100542.06;5044512;28;20031;-51
2021/04/26 10:01:19;;;;;;;3.42;0.63;;;16.50;51.00;;;15.70;37.08;100542.75;5053070;28;20036;-52
2021/04/26 10:03:47;;;;;;;5.63;1.10;;;16.40;51.00;;;15.52;36.84;100524.66;5048061;28;20045;-46
2021/04/26 10:06:18;;;;;;;4.20;0.80;;;16.30;50.60;;;15.52;36.57;100525.47;5056905;28;20322;-50
2021/04/26 10:08:49;;;;;;;5.00;0.90;;;16.20;50.70;;;15.51;37.14;100534.34;5065513;28;20579;-49
2021/04/26 10:11:17;;;;;;;3.33;0.90;;;16.10;51.40;;;15.35;36.55;100539.69;5064430;28;20120;-51
2021/04/26 10:13:45;;;;;;;3.83;1.30;;;16.00;50.00;;;15.21;35.72;100525.50;5060131;28;20040;-50
2021/04/26 10:16:32;;;;;;;4.25;0.80;;;15.90;49.40;;;15.06;36.25;100529.06;5043152;28;20033;-44
2021/04/26 10:19:00;;;;;;;6.13;1.27;;;15.70;50.20;;;14.90;36.72;100525.50;5036900;28;20434;-51
2021/04/26 10:21:26;;;;;;;5.18;0.82;;;15.60;50.60;;;14.85;37.10;100527.81;5050353;28;20036;-48